Time;durP1;ratioP1;P1;durP2;ratioP2;P2;SDS_P1;SDS_P2;PMS_P1;PMS_P2;Temp;Humidity;BMP_temperature;BMP_pressure;BME280_temperature;BME280_humidity;BME280_pressure;Samples;Min_cycle;Max_cycle;Signal;HPM_P1;HPM_P2
2021/06/14 00:00:22;;;;;;;7.40;3.60;;;;;;;14.38;61.79;101741.34;5114523;27;20050;-49
2021/06/14 00:02:48;;;;;;;6.20;3.47;;;;;;;14.41;62.17;101724.66;5114942;27;20130;-49
2021/06/14 00:05:29;;;;;;;6.88;3.92;;;;;;;14.10;63.78;101723.00;5116403;27;20058;-49
2021/06/14 00:07:55;;;;;;;7.20;3.60;;;;;;;14.39;62.06;101718.56;5114711;27;21688;-48
2021/06/14 00:10:23;;;;;;;5.93;3.47;;;;;;;14.23;62.10;101718.59;5115946;27;20043;-48
2021/06/14 00:12:49;;;;;;;6.20;3.35;;;;;;;14.08;63.19;101716.00;5115517;27;20046;-49
2021/06/14 00:15:16;;;;;;;5.55;3.03;;;;;;;14.19;62.24;101716.88;5079679;27;20035;-50
2021/06/14 00:17:42;;;;;;;6.32;3.28;;;;;;;14.36;62.14;101710.66;5111957;27;20062;-52
2021/06/14 00:20:13;;;;;;;5.13;3.20;;;;;;;14.25;62.03;101708.94;5115512;27;20039;-49
2021/06/14 00:22:39;;;;;;;7.00;3.35;;;;;;;14.44;62.32;101711.50;5114936;27;20074;-49
2021/06/14 00:25:08;;;;;;;6.85;3.25;;;;;;;14.41;62.47;101701.00;5113583;27;20039;-48
2021/06/14 00:27:34;;;;;;;5.07;3.15;;;;;;;14.30;61.52;101699.28;5114778;27;20104;-49
2021/06/14 00:30:01;;;;;;;6.80;3.22;;;;;;;14.18;61.51;101701.97;5114134;27;20453;-48
2021/06/14 00:32:26;;;;;;;7.07;3.30;;;;;;;14.13;61.65;101707.22;5112380;27;20120;-48
2021/06/14 00:34:53;;;;;;;7.00;3.13;;;;;;;13.96;61.38;101699.38;5115730;27;20080;-48
2021/06/14 00:37:18;;;;;;;6.18;3.30;;;;;;;14.08;62.27;101705.47;5114504;27;20039;-48
2021/06/14 00:39:45;;;;;;;7.13;3.10;;;;;;;14.21;61.50;101694.06;5113804;27;20390;-49
2021/06/14 00:42:11;;;;;;;6.28;3.20;;;;;;;14.21;62.12;101693.19;5115222;27;20351;-49
2021/06/14 00:44:36;;;;;;;5.88;2.95;;;;;;;14.07;61.65;101690.59;5098309;27;20263;-48
2021/06/14 00:47:03;;;;;;;5.20;2.97;;;;;;;14.30;61.23;101680.88;5096813;27;20074;-48
2021/06/14 00:49:29;;;;;;;5.57;2.85;;;;;;;14.09;60.74;101688.84;5096858;27;20449;-51
2021/06/14 00:51:56;;;;;;;6.78;2.85;;;;;;;14.05;61.39;101681.84;5073842;27;20498;-50
2021/06/14 00:54:22;;;;;;;7.07;2.80;;;;;;;14.12;62.56;101679.19;5114128;27;20078;-53
2021/06/14 00:56:48;;;;;;;5.47;2.90;;;;;;;14.36;61.76;101676.44;5097732;27;20407;-49
2021/06/14 00:59:14;;;;;;;6.25;3.10;;;;;;;14.11;63.10;101676.56;5098293;27;20034;-49
2021/06/14 01:01:41;;;;;;;8.18;3.13;;;;;;;14.09;61.43;101676.56;5074775;28;20031;-48
2021/06/14 01:04:07;;;;;;;6.32;3.70;;;;;;;14.09;61.79;101680.94;5077262;28;20051;-49
2021/06/14 01:06:33;;;;;;;6.25;3.03;;;;;;;14.06;62.96;101667.81;5075357;28;20455;-50
2021/06/14 01:08:59;;;;;;;6.03;3.17;;;;;;;13.75;62.71;101678.41;5096502;28;20035;-48
2021/06/14 01:12:04;;;;;;;6.63;3.15;;;;;;;14.09;60.88;101676.56;5093463;27;20032;-49
2021/06/14 01:14:42;;;;;;;7.30;3.03;;;;;;;13.72;63.66;101676.66;5097600;27;20027;-49
2021/06/14 01:17:22;;;;;;;6.28;3.20;;;;;;;13.58;63.40;101681.03;5113941;27;20027;-52
2021/06/14 01:20:02;;;;;;;6.05;3.10;;;;;;;13.60;64.09;101680.16;5114845;27;21580;-48
2021/06/14 01:22:55;;;;;;;7.63;3.40;;;;;;;13.36;64.58;101669.66;5094992;27;20088;-49
2021/06/14 01:25:27;;;;;;;6.68;3.08;;;;;;;13.58;64.69;101674.06;5095180;27;20032;-50
2021/06/14 01:27:57;;;;;;;7.28;3.10;;;;;;;13.25;65.04;101667.00;5085506;28;20031;-49
2021/06/14 01:30:33;;;;;;;5.75;3.00;;;;;;;13.19;66.08;101662.63;5092789;28;20035;-48
2021/06/14 01:33:05;;;;;;;7.38;3.00;;;;;;;13.01;66.84;101653.00;5090195;28;20059;-49
2021/06/14 01:35:39;;;;;;;8.10;3.38;;;;;;;13.22;65.09;101653.88;5095292;28;20122;-48
2021/06/14 01:38:06;;;;;;;5.70;3.90;;;;;;;12.89;66.70;101651.25;5079387;28;20036;-52
2021/06/14 01:40:34;;;;;;;5.35;3.03;;;;;;;13.09;65.42;101655.66;5088635;28;20071;-51
2021/06/14 01:43:06;;;;;;;5.85;2.97;;;;;;;13.01;65.18;101642.50;5091954;27;20448;-49
2021/06/14 01:45:36;;;;;;;5.45;3.00;;;;;;;13.55;63.72;101653.03;5094483;28;20322;-50
2021/06/14 01:48:04;;;;;;;7.28;3.30;;;;;;;13.37;64.55;101656.53;5092809;28;20504;-48
2021/06/14 01:50:31;;;;;;;6.60;3.00;;;;;;;13.22;65.35;101659.13;5091711;28;20122;-49
2021/06/14 01:52:58;;;;;;;5.90;3.08;;;;;;;12.95;66.48;101655.63;5094693;28;20463;-49
2021/06/14 01:55:25;;;;;;;5.72;2.92;;;;;;;12.69;66.76;101645.09;5106974;27;20122;-48
2021/06/14 01:58:04;;;;;;;6.80;3.08;;;;;;;12.67;67.95;101645.09;5095496;28;20401;-48
2021/06/14 02:00:43;;;;;;;5.93;3.03;;;;;;;12.44;68.38;101645.03;5091241;28;20050;-50
2021/06/14 02:03:39;;;;;;;6.10;3.03;;;;;;;12.43;68.59;101640.63;5080310;28;20036;-48
2021/06/14 02:06:38;;;;;;;5.85;2.95;;;;;;;12.13;70.15;101637.03;5074269;28;20408;-48
2021/06/14 02:09:07;;;;;;;7.00;3.60;;;;;;;11.98;70.54;101636.97;5093652;28;20114;-48
2021/06/14 02:11:35;;;;;;;6.05;3.08;;;;;;;11.95;70.97;101639.56;5106201;27;20030;-48
2021/06/14 02:14:04;;;;;;;6.47;3.67;;;;;;;11.90;71.92;101629.91;5091717;28;20030;-50
2021/06/14 02:16:30;;;;;;;7.43;3.78;;;;;;;11.99;71.05;101625.59;5076119;28;20040;-47
2021/06/14 02:18:57;;;;;;;7.60;3.80;;;;;;;11.91;72.10;101623.78;5089912;28;20044;-50
2021/06/14 02:21:23;;;;;;;6.93;3.53;;;;;;;11.97;71.64;101619.50;5091276;28;20050;-50
2021/06/14 02:23:49;;;;;;;6.70;3.80;;;;;;;11.93;71.92;101622.06;5092945;28;20399;-50
2021/06/14 02:26:16;;;;;;;6.63;3.65;;;;;;;12.00;70.92;101624.75;5093782;28;20484;-48
2021/06/14 02:28:43;;;;;;;5.72;3.35;;;;;;;12.18;70.17;101616.94;5087919;28;20395;-48
2021/06/14 02:31:11;;;;;;;6.63;3.63;;;;;;;11.89;71.42;101622.94;5093973;28;20035;-48
2021/06/14 02:33:37;;;;;;;7.50;3.80;;;;;;;11.78;72.90;101621.09;5087277;28;20538;-47
2021/06/14 02:36:09;;;;;;;7.55;3.88;;;;;;;11.80;72.50;101615.00;5077896;28;20047;-48
2021/06/14 02:38:36;;;;;;;6.22;3.90;;;;;;;11.69;73.42;101621.94;5082087;28;20027;-49
2021/06/14 02:41:03;;;;;;;6.78;3.38;;;;;;;11.66;73.00;101617.56;5091785;28;20372;-48
2021/06/14 02:43:30;;;;;;;6.20;3.60;;;;;;;12.05;70.66;101615.16;5092081;28;20054;-49
2021/06/14 02:45:56;;;;;;;7.47;4.07;;;;;;;11.93;70.93;101618.56;5087412;28;21112;-50
2021/06/14 02:48:32;;;;;;;7.43;3.65;;;;;;;12.01;71.27;101606.41;5089562;28;20479;-51
2021/06/14 02:51:01;;;;;;;7.25;3.85;;;;;;;11.88;71.70;101615.94;5078206;28;20124;-47
2021/06/14 02:53:31;;;;;;;9.32;3.83;;;;;;;11.74;72.34;101615.84;5093046;28;20067;-48
2021/06/14 02:56:06;;;;;;;6.78;3.72;;;;;;;11.49;73.25;101625.31;5093063;28;20376;-48
2021/06/14 02:58:39;;;;;;;6.95;3.63;;;;;;;11.38;73.42;101606.91;5091584;28;20062;-48
2021/06/14 03:01:08;;;;;;;6.70;4.18;;;;;;;11.62;72.52;101612.31;5093750;28;20067;-48
2021/06/14 03:03:36;;;;;;;10.47;4.93;;;;;;;11.55;73.34;101612.25;5092854;28;20031;-49
2021/06/14 03:06:04;;;;;;;7.57;4.10;;;;;;;11.21;74.59;101614.59;5086400;28;20123;-49
2021/06/14 03:08:35;;;;;;;7.07;3.90;;;;;;;11.27;74.06;101607.69;5091751;28;20278;-48
2021/06/14 03:11:01;;;;;;;8.07;3.72;;;;;;;11.12;75.19;101608.44;5092911;28;20970;-48
2021/06/14 03:13:27;;;;;;;6.40;4.10;;;;;;;11.19;74.53;101602.41;5091614;28;20283;-48
2021/06/14 03:15:54;;;;;;;6.85;3.80;;;;;;;11.18;74.02;101609.34;5111513;27;20255;-49
2021/06/14 03:18:24;;;;;;;7.70;3.60;;;;;;;11.18;74.09;101598.88;5096294;28;20044;-52
2021/06/14 03:20:54;;;;;;;8.60;3.83;;;;;;;11.08;74.15;101599.69;5094930;28;20383;-48
2021/06/14 03:23:23;;;;;;;7.80;4.25;;;;;;;11.21;73.52;101592.81;5091062;27;20055;-49
2021/06/14 03:25:50;;;;;;;7.00;4.25;;;;;;;10.95;75.22;101592.59;5094339;27;20042;-49
2021/06/14 03:28:18;;;;;;;7.05;4.65;;;;;;;11.11;74.79;101597.09;5094213;27;20063;-49
2021/06/14 03:30:45;;;;;;;;;;;;;;;11.16;74.17;101594.50;5097727;27;20115;-50
2021/06/14 03:33:15;;;;;;;7.32;4.15;;;;;;;11.16;73.58;101597.13;5095218;27;19915;-49
2021/06/14 03:35:41;;;;;;;7.13;3.95;;;;;;;11.31;73.95;101599.88;5095818;27;20122;-48
2021/06/14 03:38:08;;;;;;;7.00;4.38;;;;;;;11.08;74.53;101597.06;5094650;28;20060;-48
2021/06/14 03:40:33;;;;;;;7.45;3.83;;;;;;;11.26;74.36;101604.19;5094911;28;20032;-49
2021/06/14 03:43:05;;;;;;;7.82;4.13;;;;;;;11.20;74.73;101596.28;5098089;28;20380;-47
2021/06/14 03:45:32;;;;;;;7.85;4.32;;;;;;;11.06;75.49;101593.56;5094103;28;20063;-49
2021/06/14 03:47:58;;;;;;;6.88;4.22;;;;;;;10.92;76.08;101595.19;5096616;28;20495;-47
2021/06/14 03:50:24;;;;;;;8.15;4.45;;;;;;;10.92;76.64;101589.97;5094624;28;20023;-48
2021/06/14 03:52:50;;;;;;;8.02;5.13;;;;;;;10.76;76.92;101592.44;5094207;27;20038;-48
2021/06/14 03:55:16;;;;;;;7.63;4.30;;;;;;;11.26;75.18;101593.72;5091656;28;20027;-48
2021/06/14 03:57:43;;;;;;;8.25;4.32;;;;;;;11.10;74.47;101590.09;5093885;27;20047;-49
2021/06/14 04:00:14;;;;;;;8.18;4.60;;;;;;;11.02;75.17;101589.16;5094407;28;20043;-48
2021/06/14 04:02:40;;;;;;;7.10;4.25;;;;;;;11.14;75.26;101591.88;5094878;28;20110;-50
2021/06/14 04:05:07;;;;;;;9.05;4.50;;;;;;;11.27;74.79;101586.72;5094526;28;20036;-48
2021/06/14 04:07:53;;;;;;;7.40;4.47;;;;;;;11.58;74.02;101585.19;5082753;28;20542;-48
2021/06/14 04:10:19;;;;;;;7.55;4.40;;;;;;;11.41;74.94;101582.50;5092124;27;20059;-48
2021/06/14 04:12:44;;;;;;;8.45;4.03;;;;;;;11.50;73.65;101581.66;5093282;28;20096;-48
2021/06/14 04:15:10;;;;;;;9.13;4.15;;;;;;;11.59;73.07;101574.72;5092013;27;20035;-47
2021/06/14 04:17:36;;;;;;;7.45;3.75;;;;;;;11.78;72.45;101574.81;5094347;28;20035;-49
2021/06/14 04:20:05;;;;;;;6.63;3.92;;;;;;;11.70;72.39;101577.41;5096166;28;20042;-49
2021/06/14 04:22:32;;;;;;;6.95;3.97;;;;;;;11.80;72.35;101572.22;5093846;27;20096;-48
2021/06/14 04:24:57;;;;;;;7.72;4.05;;;;;;;11.80;74.01;101573.09;5093394;28;20029;-48
2021/06/14 04:27:23;;;;;;;6.72;3.83;;;;;;;11.94;72.23;101570.56;5095667;28;20051;-48
2021/06/14 04:29:49;;;;;;;7.57;4.05;;;;;;;11.96;71.12;101568.81;5095451;28;20068;-49
2021/06/14 04:32:15;;;;;;;7.93;4.00;;;;;;;11.98;72.47;101574.94;5095092;28;20475;-48
2021/06/14 04:34:40;;;;;;;7.80;4.20;;;;;;;12.24;70.23;101568.94;5093681;28;20028;-48
2021/06/14 04:37:06;;;;;;;8.20;3.55;;;;;;;12.32;70.38;101571.56;5094468;28;20591;-47
2021/06/14 04:39:33;;;;;;;8.45;3.97;;;;;;;12.29;71.00;101572.44;5092265;28;20538;-48
2021/06/14 04:41:58;;;;;;;6.53;3.80;;;;;;;12.36;70.49;101570.69;5092977;28;20040;-48
2021/06/14 04:44:24;;;;;;;6.95;4.05;;;;;;;12.36;70.74;101565.44;5094763;28;20104;-48
2021/06/14 04:46:50;;;;;;;7.63;4.07;;;;;;;12.38;70.58;101566.34;5076901;28;20043;-47
2021/06/14 04:49:15;;;;;;;6.93;3.83;;;;;;;12.44;69.22;101563.72;5095559;28;20028;-48
2021/06/14 04:51:41;;;;;;;6.72;3.65;;;;;;;12.44;71.67;101561.97;5093207;27;20051;-49
2021/06/14 04:54:07;;;;;;;5.78;3.33;;;;;;;12.47;70.30;101555.84;5092423;28;20039;-48
2021/06/14 04:56:32;;;;;;;5.93;3.50;;;;;;;12.51;69.80;101555.00;5077427;27;20095;-48
2021/06/14 04:58:58;;;;;;;8.48;3.20;;;;;;;12.60;68.99;101546.28;5114761;27;20532;-47
2021/06/14 05:01:24;;;;;;;7.60;3.47;;;;;;;12.69;67.68;101551.50;5112103;27;20508;-48
2021/06/14 05:03:49;;;;;;;6.57;3.70;;;;;;;12.76;69.28;101549.75;5115220;27;20502;-48
2021/06/14 05:06:15;;;;;;;7.00;3.28;;;;;;;12.85;68.87;101546.25;5117954;27;20051;-47
2021/06/14 05:08:41;;;;;;;6.88;3.67;;;;;;;13.00;69.95;101553.25;5093158;27;20300;-48
2021/06/14 05:11:07;;;;;;;6.97;3.38;;;;;;;13.05;67.57;101554.13;5098231;27;20286;-47
2021/06/14 05:13:32;;;;;;;5.97;3.17;;;;;;;13.13;69.05;101556.78;5111729;27;20071;-47
2021/06/14 05:15:58;;;;;;;6.97;3.40;;;;;;;13.15;68.43;101566.38;5113304;27;20395;-49
2021/06/14 05:18:23;;;;;;;7.95;3.10;;;;;;;13.27;68.56;101566.34;5109299;27;20499;-48
2021/06/14 05:20:49;;;;;;;5.40;2.95;;;;;;;13.35;67.25;101570.75;5108000;27;20162;-47
2021/06/14 05:23:15;;;;;;;7.80;3.33;;;;;;;13.42;68.92;101564.63;5111214;27;20662;-47
2021/06/14 05:25:40;;;;;;;8.88;3.60;;;;;;;13.47;67.87;101561.97;5092825;27;20043;-47
2021/06/14 05:28:06;;;;;;;7.28;3.50;;;;;;;13.56;68.96;101568.09;5095169;27;20055;-48
2021/06/14 05:30:33;;;;;;;5.32;3.20;;;;;;;13.66;68.74;101571.56;5091942;27;20527;-47
2021/06/14 05:32:59;;;;;;;7.35;3.22;;;;;;;13.73;68.17;101562.78;5109644;27;20426;-48
2021/06/14 05:35:25;;;;;;;8.23;3.85;;;;;;;13.83;67.17;101561.00;5106481;27;20027;-48
2021/06/14 05:37:51;;;;;;;6.65;3.00;;;;;;;14.10;64.19;101570.50;5109258;27;20096;-49
2021/06/14 05:40:17;;;;;;;6.35;2.90;;;;;;;14.08;64.91;101574.91;5108799;27;20043;-48
2021/06/14 05:42:43;;;;;;;7.07;3.05;;;;;;;14.12;65.60;101579.28;5121361;27;20294;-48
2021/06/14 05:45:10;;;;;;;5.85;3.20;;;;;;;14.18;66.13;101575.75;5131902;27;20214;-47
2021/06/14 05:47:36;;;;;;;7.00;2.97;;;;;;;14.35;63.02;101574.78;5116279;27;20045;-48
2021/06/14 05:50:03;;;;;;;6.03;3.28;;;;;;;14.81;61.70;101577.09;5111210;27;20640;-49
2021/06/14 05:52:30;;;;;;;5.03;2.65;;;;;;;14.89;60.39;101579.69;5133607;27;20035;-48
2021/06/14 05:54:56;;;;;;;5.95;2.85;;;;;;;15.24;59.63;101570.59;5114000;27;20079;-48
2021/06/14 05:57:21;;;;;;;5.80;2.88;;;;;;;15.40;58.82;101571.34;5132448;27;20362;-49
2021/06/14 05:59:47;;;;;;;7.13;3.17;;;;;;;15.33;58.61;101578.41;5134382;27;20041;-47
2021/06/14 06:02:12;;;;;;;5.40;2.63;;;;;;;15.32;58.65;101572.25;5126538;27;20807;-48
2021/06/14 06:04:40;;;;;;;5.72;2.80;;;;;;;15.21;58.69;101574.13;5117440;27;20042;-48
2021/06/14 06:07:06;;;;;;;6.20;3.05;;;;;;;15.33;59.17;101578.41;5131655;27;20035;-49
2021/06/14 06:09:32;;;;;;;5.70;2.83;;;;;;;15.48;58.62;101577.41;5128637;27;20038;-48
2021/06/14 06:11:58;;;;;;;6.28;3.15;;;;;;;16.30;55.96;101574.66;5135376;27;20038;-48
2021/06/14 06:14:24;;;;;;;5.80;2.92;;;;;;;16.11;56.47;101575.78;5128213;27;20038;-47
2021/06/14 06:16:50;;;;;;;5.95;2.80;;;;;;;16.51;54.78;101572.59;5130197;27;20035;-49
2021/06/14 06:19:16;;;;;;;5.47;2.63;;;;;;;16.13;56.15;101577.53;5116928;27;20046;-48
2021/06/14 06:21:42;;;;;;;5.60;2.90;;;;;;;16.26;57.96;101577.38;5110260;27;20436;-48
2021/06/14 06:24:08;;;;;;;5.90;2.80;;;;;;;16.50;55.98;101586.69;5131852;27;20046;-48
2021/06/14 06:26:34;;;;;;;6.40;2.88;;;;;;;16.45;55.11;101578.84;5131660;27;20050;-48
2021/06/14 06:29:00;;;;;;;6.90;2.72;;;;;;;17.06;54.46;101575.25;5133628;27;20454;-48
2021/06/14 06:31:26;;;;;;;4.57;2.58;;;;;;;17.42;52.64;101575.50;5135079;27;20066;-47
2021/06/14 06:33:51;;;;;;;6.13;2.78;;;;;;;17.14;53.69;101561.03;5136469;27;20039;-48
2021/06/14 06:36:17;;;;;;;7.03;2.88;;;;;;;17.30;53.50;101563.41;5134580;27;20043;-48
2021/06/14 06:38:43;;;;;;;5.00;2.65;;;;;;;17.31;53.21;101558.09;5128166;27;20039;-50
2021/06/14 06:41:08;;;;;;;4.93;2.80;;;;;;;17.40;53.59;101554.38;5118509;27;20042;-48
2021/06/14 06:43:35;;;;;;;6.47;2.90;;;;;;;17.07;53.77;101564.69;5119496;27;20458;-48
2021/06/14 06:46:03;;;;;;;8.50;2.80;;;;;;;17.12;55.21;101567.25;5095429;27;20387;-49
2021/06/14 06:48:29;;;;;;;6.13;2.58;;;;;;;16.94;54.13;101564.00;5127094;27;20035;-48
2021/06/14 06:50:56;;;;;;;6.50;3.03;;;;;;;17.50;52.63;101561.25;5118632;27;20066;-48
2021/06/14 06:53:23;;;;;;;5.75;2.88;;;;;;;17.15;53.62;101561.91;5139120;27;20042;-48
2021/06/14 06:55:48;;;;;;;6.03;2.90;;;;;;;17.32;53.83;101567.75;5103996;27;20029;-49
2021/06/14 06:58:15;;;;;;;7.35;2.92;;;;;;;17.34;53.26;101558.03;5114581;27;20047;-48
2021/06/14 07:00:41;;;;;;;5.53;2.55;;;;;;;17.36;54.03;101552.69;5126974;27;20054;-48
2021/06/14 07:03:08;;;;;;;6.60;3.20;;;;;;;17.84;52.74;101559.69;5112225;27;20053;-48
2021/06/14 07:05:36;;;;;;;7.23;3.23;;;;;;;17.55;52.69;101563.78;5096211;27;20031;-49
2021/06/14 07:08:02;;;;;;;6.15;2.67;;;;;;;18.01;51.09;101562.00;5120197;27;20038;-48
2021/06/14 07:10:28;;;;;;;7.15;3.22;;;;;;;17.91;51.76;101564.00;5116664;27;20035;-48
2021/06/14 07:12:54;;;;;;;4.82;2.90;;;;;;;17.70;52.52;101558.19;5096918;27;20554;-49
2021/06/14 07:15:19;;;;;;;6.50;3.20;;;;;;;17.82;52.09;101566.78;5112161;27;20126;-50
2021/06/14 07:17:45;;;;;;;5.35;2.90;;;;;;;17.96;52.04;101571.84;5115729;27;20050;-49
2021/06/14 07:20:13;;;;;;;7.63;3.00;;;;;;;18.27;50.02;101574.66;5134476;27;20483;-49
2021/06/14 07:22:39;;;;;;;5.93;3.10;;;;;;;18.08;50.86;101574.19;5134177;27;20035;-51
2021/06/14 07:25:06;;;;;;;5.22;2.75;;;;;;;17.84;51.56;101578.22;5120338;27;20654;-50
2021/06/14 07:27:33;;;;;;;6.50;2.92;;;;;;;18.26;50.07;101586.16;5102269;27;20475;-50
2021/06/14 07:30:00;;;;;;;7.07;2.75;;;;;;;18.33;50.81;101585.13;5127997;27;20141;-49
2021/06/14 07:32:26;;;;;;;5.65;2.65;;;;;;;18.22;50.60;101573.94;5118054;27;20079;-49
2021/06/14 07:34:52;;;;;;;4.95;2.85;;;;;;;18.49;50.02;101574.19;5100728;27;20023;-49
2021/06/14 07:37:20;;;;;;;6.45;2.72;;;;;;;18.45;49.19;101573.38;5110301;27;20040;-50
2021/06/14 07:39:46;;;;;;;4.38;2.78;;;;;;;18.68;50.08;101567.53;5127574;27;20073;-48
2021/06/14 07:42:13;;;;;;;6.78;2.80;;;;;;;18.68;49.47;101564.91;5139347;27;20069;-48
2021/06/14 07:44:39;;;;;;;5.82;2.95;;;;;;;19.02;49.54;101561.44;5132902;27;20566;-49
2021/06/14 07:47:04;;;;;;;5.22;2.88;;;;;;;19.31;48.63;101559.78;5099175;27;20120;-49
2021/06/14 07:49:30;;;;;;;7.05;2.90;;;;;;;19.19;47.73;101553.06;5117893;27;20062;-48
2021/06/14 07:51:56;;;;;;;5.82;2.78;;;;;;;19.02;49.26;101558.81;5118758;27;20152;-48
2021/06/14 07:54:22;;;;;;;6.65;2.72;;;;;;;19.31;48.55;101559.78;5117001;27;20039;-48
2021/06/14 07:56:48;;;;;;;8.45;3.20;;;;;;;19.09;49.44;101554.19;5111079;27;20683;-49
2021/06/14 07:59:15;;;;;;;7.40;3.20;;;;;;;19.43;48.34;101552.44;5108572;27;20288;-50
2021/06/14 08:01:43;;;;;;;7.57;3.00;;;;;;;19.60;48.15;101544.84;5110408;27;20077;-48
2021/06/14 08:04:08;;;;;;;7.05;2.83;;;;;;;19.56;47.28;101543.19;5128092;27;20046;-47
2021/06/14 08:06:34;;;;;;;5.28;2.78;;;;;;;19.64;48.13;101535.91;5128163;27;20035;-49
2021/06/14 08:09:05;;;;;;;6.30;3.10;;;;;;;20.14;46.71;101535.34;5116483;27;20031;-51
2021/06/14 08:11:30;;;;;;;9.02;3.20;;;;;;;19.96;47.21;101525.28;5107697;27;20043;-47
2021/06/14 08:13:58;;;;;;;4.80;2.90;;;;;;;19.94;47.79;101528.00;5117296;27;20289;-48
2021/06/14 08:16:24;;;;;;;6.57;3.15;;;;;;;20.10;46.50;101523.06;5099282;27;20459;-48
2021/06/14 08:19:03;;;;;;;5.40;2.85;;;;;;;20.16;47.07;101516.69;5114415;27;20059;-51
2021/06/14 08:27:14;;;;;;;6.90;2.83;;;;;;;20.69;46.07;101505.31;5128863;27;20118;-48
2021/06/14 08:29:41;;;;;;;5.35;2.92;;;;;;;20.84;44.64;101510.09;5135846;27;20407;-48
2021/06/14 08:32:09;;;;;;;6.32;3.10;;;;;;;20.95;44.04;101496.44;5118100;27;20031;-48
2021/06/14 08:34:35;;;;;;;6.60;3.35;;;;;;;21.00;44.70;101499.78;5094157;27;20115;-48
2021/06/14 08:37:01;;;;;;;5.57;3.10;;;;;;;20.85;43.85;101485.25;5117656;27;20043;-50
2021/06/14 08:39:26;;;;;;;4.85;2.55;;;;;;;20.98;43.50;101484.84;5096677;27;20518;-51
2021/06/14 08:41:54;;;;;;;5.50;2.90;;;;;;;21.16;42.99;101484.16;5091914;27;20548;-50
2021/06/14 08:44:20;;;;;;;5.88;3.00;;;;;;;20.96;45.54;101479.53;5113733;27;20063;-50
2021/06/14 08:46:49;;;;;;;6.15;2.70;;;;;;;20.61;46.71;101483.41;5115716;27;20090;-49
2021/06/14 08:49:15;;;;;;;7.45;3.10;;;;;;;20.90;45.34;101495.72;5115611;27;20039;-50
2021/06/14 08:51:41;;;;;;;6.10;3.30;;;;;;;21.12;43.97;101495.81;5116614;27;20556;-48
2021/06/14 08:54:07;;;;;;;7.13;3.97;;;;;;;21.12;44.62;101494.97;5119755;27;20039;-48
2021/06/14 08:56:33;;;;;;;5.18;3.25;;;;;;;21.25;42.33;101493.59;5116721;27;20038;-50
2021/06/14 08:58:58;;;;;;;5.38;3.30;;;;;;;21.40;44.04;101493.00;5098320;27;20561;-50
2021/06/14 09:01:25;;;;;;;5.18;3.05;;;;;;;21.36;44.63;101495.84;5130358;27;20534;-48
2021/06/14 09:03:51;;;;;;;6.22;3.22;;;;;;;21.90;41.13;101493.84;5133366;27;20403;-50
2021/06/14 09:06:16;;;;;;;7.38;3.45;;;;;;;21.81;41.47;101486.22;5128297;27;20050;-48
2021/06/14 09:09:03;;;;;;;5.93;3.58;;;;;;;21.71;42.40;101473.28;5080996;27;20041;-48
2021/06/14 09:11:31;;;;;;;7.70;3.15;;;;;;;21.49;44.19;101480.31;5115278;27;20034;-49
2021/06/14 09:13:58;;;;;;;5.72;3.35;;;;;;;21.72;42.87;101472.38;5076289;27;20034;-48
2021/06/14 09:16:31;;;;;;;5.88;2.80;;;;;;;21.99;41.17;101458.91;5107661;27;20116;-48
2021/06/14 09:18:58;;;;;;;5.60;3.17;;;;;;;22.27;39.59;101455.97;5112018;27;20778;-50
2021/06/14 09:21:27;;;;;;;5.78;2.92;;;;;;;22.34;41.58;101461.06;5084998;27;20208;-49
2021/06/14 09:23:55;;;;;;;5.65;2.92;;;;;;;22.03;42.20;101457.84;5090942;27;20069;-49
2021/06/14 09:26:43;;;;;;;6.82;3.20;;;;;;;22.57;40.46;101445.00;5092452;27;20052;-48
2021/06/14 09:29:21;;;;;;;8.00;3.17;;;;;;;22.09;43.03;101449.59;5089378;27;20054;-49
2021/06/14 09:31:49;;;;;;;7.00;3.75;;;;;;;22.08;42.67;101442.56;5109634;27;20041;-49
2021/06/14 09:34:15;;;;;;;6.95;3.30;;;;;;;22.72;40.14;101440.81;5110991;27;20046;-48
2021/06/14 09:36:47;;;;;;;5.05;2.78;;;;;;;22.61;39.85;101440.41;5110667;27;20125;-49
2021/06/14 09:39:18;;;;;;;4.90;3.45;;;;;;;22.56;40.02;101442.38;5092985;27;20104;-49
2021/06/14 09:41:53;;;;;;;7.32;3.40;;;;;;;22.68;40.59;101443.66;5109618;27;20394;-49
2021/06/14 09:44:32;;;;;;;8.45;3.40;;;;;;;22.43;41.71;101428.72;5109461;27;21304;-49
2021/06/14 09:47:08;;;;;;;7.65;3.35;;;;;;;22.57;42.47;101428.16;5134688;27;21680;-48
2021/06/14 09:49:35;;;;;;;5.50;3.20;;;;;;;22.70;41.58;101431.13;5115891;27;20045;-49
2021/06/14 09:52:01;;;;;;;7.95;3.33;;;;;;;22.75;39.09;101422.00;5131359;27;20039;-49
2021/06/14 09:54:28;;;;;;;6.95;3.45;;;;;;;22.95;40.75;101420.25;5125880;27;20076;-49
2021/06/14 09:56:55;;;;;;;5.40;3.30;;;;;;;22.95;39.01;101407.78;5119893;27;20418;-50
2021/06/14 09:59:26;;;;;;;6.10;3.10;;;;;;;23.24;38.67;101418.09;5080671;27;20044;-49
2021/06/14 10:02:06;;;;;;;6.28;3.40;;;;;;;23.26;38.32;101413.53;5106942;27;21512;-49
2021/06/14 10:04:32;;;;;;;8.18;3.22;;;;;;;23.35;38.17;101410.47;5111532;27;20037;-48
2021/06/14 10:07:09;;;;;;;6.10;2.92;;;;;;;23.18;39.40;101405.03;5112004;27;20097;-50
2021/06/14 10:09:42;;;;;;;6.15;2.97;;;;;;;22.83;40.57;101396.81;5127976;27;20050;-50
2021/06/14 10:12:25;;;;;;;6.22;2.90;;;;;;;22.99;39.39;101399.66;5130350;27;20122;-48
2021/06/14 10:15:03;;;;;;;6.32;3.28;;;;;;;23.09;38.30;101391.16;5134204;27;20042;-49
2021/06/14 10:17:30;;;;;;;5.82;3.47;;;;;;;23.28;39.94;101403.69;5132376;27;20637;-50
2021/06/14 10:20:27;;;;;;;5.63;3.35;;;;;;;23.60;39.14;101395.97;5114827;27;20121;-50
2021/06/14 10:22:55;;;;;;;5.30;2.92;;;;;;;23.46;38.42;101386.81;5117341;27;20039;-50
2021/06/14 10:25:23;;;;;;;8.95;3.67;;;;;;;23.73;38.35;101385.53;5134116;27;20358;-50
2021/06/14 10:27:49;;;;;;;5.97;3.20;;;;;;;23.74;36.94;101393.47;5118173;27;20037;-49
2021/06/14 10:30:17;;;;;;;6.53;3.38;;;;;;;23.51;39.46;101385.72;5121344;27;20041;-50
2021/06/14 10:32:44;;;;;;;5.30;2.97;;;;;;;23.96;35.60;101389.78;5131877;27;20474;-49
2021/06/14 10:35:13;;;;;;;5.60;2.95;;;;;;;23.76;37.01;101388.94;5119426;27;20448;-49
2021/06/14 10:37:44;;;;;;;5.68;3.30;;;;;;;23.73;37.96;101389.09;5135949;27;20046;-47
2021/06/14 10:40:12;;;;;;;6.25;3.58;;;;;;;23.88;39.55;101394.66;5134976;27;20043;-48
2021/06/14 10:42:40;;;;;;;7.57;3.40;;;;;;;23.91;37.21;101384.69;5117599;27;20088;-50
2021/06/14 10:45:09;;;;;;;5.78;3.10;;;;;;;24.14;36.53;101378.19;5119998;27;20042;-49
2021/06/14 10:47:35;;;;;;;;;;;;;;;24.72;34.89;101378.81;5131201;27;20042;-47
2021/06/14 10:50:01;;;;;;;5.60;3.28;;;;;;;24.22;37.70;101382.28;5120248;27;19910;-51
2021/06/14 10:52:37;;;;;;;6.53;3.03;;;;;;;23.91;38.54;101392.72;5134630;27;20338;-49
2021/06/14 10:55:08;;;;;;;4.80;2.85;;;;;;;24.13;35.69;101392.50;5135927;27;20134;-49
2021/06/14 10:57:34;;;;;;;5.68;3.40;;;;;;;24.24;35.81;101393.75;5123367;27;20039;-50
2021/06/14 10:59:59;;;;;;;6.25;3.65;;;;;;;23.75;37.57;101387.22;5136406;27;20046;-51
2021/06/14 11:02:27;;;;;;;5.75;3.65;;;;;;;23.62;38.10;101383.38;5131077;27;20141;-52
2021/06/14 11:05:03;;;;;;;5.88;3.17;;;;;;;24.18;35.04;101372.72;5118206;27;20089;-49
2021/06/14 11:07:29;;;;;;;5.68;2.90;;;;;;;24.65;35.44;101374.75;5134726;27;20038;-51
2021/06/14 11:09:55;;;;;;;5.35;3.03;;;;;;;24.39;34.06;101371.59;5137630;27;20045;-50
2021/06/14 11:12:26;;;;;;;5.78;3.25;;;;;;;24.47;33.53;101369.38;5103538;27;20105;-51
2021/06/14 11:14:52;;;;;;;7.05;3.03;;;;;;;24.33;35.25;101361.22;5137688;27;20031;-51
2021/06/14 11:17:47;;;;;;;5.82;3.10;;;;;;;24.81;30.76;101359.63;5117228;27;20426;-49
2021/06/14 11:20:13;;;;;;;7.65;3.17;;;;;;;24.54;35.26;101359.25;5113818;27;20532;-49
2021/06/14 11:22:42;;;;;;;6.40;2.90;;;;;;;24.83;32.73;101354.19;5121446;27;20039;-52
2021/06/14 11:25:24;;;;;;;;;;;;;;;24.78;32.27;101357.13;5120438;27;20495;-49
2021/06/14 11:27:50;;;;;;;4.72;2.28;;;;;;;25.05;29.23;101355.72;5127141;27;20018;-51
2021/06/14 11:30:23;;;;;;;6.85;2.65;;;;;;;24.96;30.91;101351.69;5135658;27;20049;-50
2021/06/14 11:32:49;;;;;;;5.07;2.83;;;;;;;24.62;32.83;101358.88;5131117;27;20035;-50
2021/06/14 11:35:16;;;;;;;5.53;2.80;;;;;;;25.24;30.79;101352.84;5140334;27;20037;-51
2021/06/14 11:37:48;;;;;;;6.32;2.70;;;;;;;25.40;33.22;101351.06;5141627;27;20038;-49